Terminal Aerodrome Forecast
Issued by NWS Grand Forks, ND

Home | Current Version | Previous Version | Text Only | Print | Product List | Glossary Off
Versions: 1 2 3 4 5 6 7 8 9 10 11 12 13 14 15

490
FTUS43 KFGF 250520
TAFGFK
TAF
KGFK 250520Z 2506/2606 16011KT P6SM BKN220
     FM251100 17008KT P6SM VCTS BKN035CB OVC100
     FM251300 20008KT P6SM SCT035 BKN120
     FM251700 28010KT P6SM SCT220
     FM260200 VRB03KT P6SM SKC=

USA.gov is the U.S. government's official web portal to all federal, state and local government web resources and services.